Time;durP1;ratioP1;P1;durP2;ratioP2;P2;SDS_P1;SDS_P2;PMS_P1;PMS_P2;Temp;Humidity;BMP_temperature;BMP_pressure;BME280_temperature;BME280_humidity;BME280_pressure;Samples;Min_cycle;Max_cycle;Signal;HPM_P1;HPM_P2
2023/10/13 00:01:06;;;;;;;5.33;4.63;;;25.80;67.50;;;;;;5051648;28;20423;-72
2023/10/13 00:03:36;;;;;;;5.37;4.87;;;25.80;67.50;;;;;;5050082;28;20457;-72
2023/10/13 00:06:08;;;;;;;8.70;5.80;;;25.80;67.40;;;;;;5040421;28;20512;-72
2023/10/13 00:08:38;;;;;;;5.40;4.90;;;25.80;67.40;;;;;;5060882;28;20459;-72
2023/10/13 00:11:09;;;;;;;4.67;4.17;;;25.80;67.20;;;;;;5058723;28;20444;-72
2023/10/13 00:13:43;;;;;;;5.67;5.17;;;25.80;67.30;;;;;;5083414;28;21091;-72
2023/10/13 00:16:17;;;;;;;5.07;4.67;;;25.80;67.20;;;;;;5039616;28;20484;-72
2023/10/13 00:18:45;;;;;;;5.00;4.60;;;25.80;67.30;;;;;;5056307;28;20451;-72
2023/10/13 00:21:24;;;;;;;5.50;5.00;;;25.70;67.30;;;;;;5059655;28;20463;-72
2023/10/13 00:23:55;;;;;;;5.33;4.40;;;25.70;67.30;;;;;;5050445;28;20457;-72
2023/10/13 00:26:27;;;;;;;5.37;4.87;;;25.70;67.20;;;;;;5051045;28;20472;-72
2023/10/13 00:29:09;;;;;;;5.13;4.63;;;25.70;67.20;;;;;;5055671;28;20464;-72
2023/10/13 00:31:42;;;;;;;7.07;5.40;;;25.70;67.20;;;;;;5050089;28;20449;-72
2023/10/13 00:34:18;;;;;;;5.87;4.87;;;25.70;67.20;;;;;;5046828;28;20474;-72
2023/10/13 00:37:11;;;;;;;5.10;4.70;;;25.70;67.20;;;;;;5051245;28;20440;-72
2023/10/13 00:39:44;;;;;;;4.63;4.23;;;25.70;67.20;;;;;;5051417;28;20460;-72
2023/10/13 00:42:19;;;;;;;5.70;4.33;;;25.70;67.10;;;;;;5043755;28;20459;-72
2023/10/13 00:44:48;;;;;;;4.73;4.30;;;25.70;67.10;;;;;;5030459;28;20482;-72
2023/10/13 00:47:32;;;;;;;4.90;4.50;;;25.70;67.10;;;;;;5040870;28;20473;-72
2023/10/13 00:50:01;;;;;;;5.03;4.63;;;25.70;67.10;;;;;;5047478;28;20469;-72
2023/10/13 00:52:30;;;;;;;5.07;4.57;;;25.70;67.10;;;;;;5031181;28;20461;-72
2023/10/13 00:54:59;;;;;;;4.83;4.40;;;25.70;67.10;;;;;;5031313;28;20818;-72
2023/10/13 00:57:28;;;;;;;4.50;4.10;;;25.70;67.10;;;;;;5059671;28;20485;-72
2023/10/13 00:59:57;;;;;;;5.43;4.70;;;25.70;67.00;;;;;;5057710;28;20467;-72
2023/10/13 01:02:37;;;;;;;5.10;4.60;;;25.70;67.00;;;;;;5050042;28;20498;-72
2023/10/13 01:05:09;;;;;;;4.77;4.30;;;25.70;67.00;;;;;;5050194;28;21003;-72
2023/10/13 01:07:40;;;;;;;5.50;4.87;;;25.70;67.00;;;;;;5049408;28;20441;-72
2023/10/13 01:10:14;;;;;;;9.17;4.63;;;25.70;66.90;;;;;;5051688;28;20510;-72
2023/10/13 01:12:42;;;;;;;4.83;4.43;;;25.70;66.90;;;;;;5055768;28;20519;-72
2023/10/13 01:15:11;;;;;;;4.53;4.13;;;25.70;66.90;;;;;;5050998;28;21044;-72
2023/10/13 01:17:38;;;;;;;4.90;4.40;;;25.70;66.90;;;;;;5048689;28;20464;-72
2023/10/13 01:20:10;;;;;;;5.67;5.00;;;25.70;66.90;;;;;;5070010;28;20448;-72
2023/10/13 01:22:42;;;;;;;4.90;4.40;;;25.70;66.90;;;;;;5046369;28;20479;-72
2023/10/13 01:25:19;;;;;;;4.47;4.10;;;25.70;66.90;;;;;;5050231;28;20798;-73
2023/10/13 01:27:48;;;;;;;4.93;4.63;;;25.70;66.80;;;;;;5040256;28;20462;-71
2023/10/13 01:30:22;;;;;;;5.67;4.57;;;25.70;66.90;;;;;;5070830;28;20443;-71
2023/10/13 01:32:50;;;;;;;5.37;4.30;;;25.70;66.90;;;;;;5063717;28;20867;-72
2023/10/13 01:35:24;;;;;;;5.03;4.13;;;25.60;66.90;;;;;;5050030;28;20464;-72
2023/10/13 01:37:53;;;;;;;4.60;3.80;;;25.60;66.80;;;;;;5050447;28;20436;-72
2023/10/13 01:40:28;;;;;;;4.40;4.00;;;25.60;66.90;;;;;;5049288;28;20453;-72
2023/10/13 01:42:57;;;;;;;4.80;4.20;;;25.60;66.80;;;;;;5050736;28;20428;-72
2023/10/13 01:45:28;;;;;;;4.23;3.83;;;25.60;66.80;;;;;;5050578;28;20444;-72
2023/10/13 01:47:57;;;;;;;5.60;5.10;;;25.60;66.80;;;;;;5047542;28;20474;-72
2023/10/13 01:50:29;;;;;;;5.93;4.27;;;25.60;66.80;;;;;;5073219;28;21011;-72
2023/10/13 01:53:10;;;;;;;5.13;4.73;;;25.60;66.80;;;;;;5052042;28;20467;-72
2023/10/13 01:55:42;;;;;;;4.83;4.43;;;25.60;66.80;;;;;;5052081;28;20464;-72
2023/10/13 01:58:15;;;;;;;4.30;3.90;;;25.60;66.80;;;;;;5088297;28;20459;-71
2023/10/13 02:00:44;;;;;;;4.50;4.10;;;25.60;66.80;;;;;;5064943;28;20959;-71
2023/10/13 02:03:15;;;;;;;4.47;4.17;;;25.60;66.80;;;;;;5059743;28;20464;-72
2023/10/13 02:05:47;;;;;;;4.40;4.00;;;25.50;66.80;;;;;;5054811;28;20863;-72
2023/10/13 02:08:22;;;;;;;4.67;4.27;;;25.50;66.70;;;;;;5056503;28;20453;-71
2023/10/13 02:10:51;;;;;;;4.10;3.70;;;25.60;66.70;;;;;;5062334;28;20538;-72
2023/10/13 02:13:22;;;;;;;4.57;4.17;;;25.50;66.70;;;;;;5049415;28;20604;-72
2023/10/13 02:15:53;;;;;;;4.00;3.70;;;25.50;66.70;;;;;;5051875;28;20513;-72
2023/10/13 02:18:26;;;;;;;4.37;3.97;;;25.50;66.70;;;;;;5052398;28;21427;-72
2023/10/13 02:20:55;;;;;;;5.03;3.73;;;25.50;66.70;;;;;;5083247;28;20467;-71
2023/10/13 02:23:24;;;;;;;3.70;3.40;;;25.50;66.70;;;;;;5052681;28;20458;-72
2023/10/13 02:26:00;;;;;;;4.50;3.93;;;25.50;66.70;;;;;;5085628;28;20448;-72
2023/10/13 02:28:33;;;;;;;5.57;4.17;;;25.50;66.70;;;;;;5057799;28;20499;-72
2023/10/13 02:31:03;;;;;;;4.83;4.40;;;25.50;66.70;;;;;;5062715;28;20514;-72
2023/10/13 02:33:32;;;;;;;4.57;4.17;;;25.50;66.60;;;;;;5050732;28;20477;-72
2023/10/13 02:36:05;;;;;;;5.23;4.60;;;25.50;66.70;;;;;;5054108;28;20513;-72
2023/10/13 02:38:42;;;;;;;4.70;4.30;;;25.50;66.60;;;;;;5046161;28;20470;-72
2023/10/13 02:41:18;;;;;;;4.40;4.00;;;25.50;66.60;;;;;;5049467;28;20457;-72
2023/10/13 02:43:47;;;;;;;5.03;4.63;;;25.50;66.70;;;;;;5063400;28;20470;-72
2023/10/13 02:46:16;;;;;;;5.13;4.63;;;25.50;66.60;;;;;;5071819;28;20458;-72
2023/10/13 02:48:52;;;;;;;4.40;4.00;;;25.50;66.60;;;;;;5050825;28;20546;-72
2023/10/13 02:51:25;;;;;;;4.37;4.03;;;25.50;66.60;;;;;;5047547;28;20459;-72
2023/10/13 02:53:53;;;;;;;4.27;3.97;;;25.50;66.60;;;;;;5051039;28;20485;-72
2023/10/13 02:56:22;;;;;;;5.93;4.60;;;25.50;66.60;;;;;;5053071;28;20526;-72
2023/10/13 02:58:56;;;;;;;4.37;4.00;;;25.50;66.60;;;;;;5058992;28;20457;-72
2023/10/13 03:01:28;;;;;;;4.97;4.20;;;25.50;66.60;;;;;;5054571;28;20472;-72
2023/10/13 03:03:58;;;;;;;4.57;4.23;;;25.50;66.50;;;;;;5050820;28;20461;-72
2023/10/13 03:06:32;;;;;;;4.77;4.47;;;25.40;66.60;;;;;;5052108;28;20452;-72
2023/10/13 03:09:13;;;;;;;5.17;4.30;;;25.40;66.60;;;;;;5047993;28;20468;-72
2023/10/13 03:11:47;;;;;;;4.97;4.07;;;25.40;66.50;;;;;;5049665;28;20482;-72
2023/10/13 03:14:25;;;;;;;4.23;3.70;;;25.40;66.60;;;;;;5048419;28;20513;-72
2023/10/13 03:16:54;;;;;;;4.83;4.37;;;25.40;66.50;;;;;;5078892;28;20478;-72
2023/10/13 03:19:22;;;;;;;5.33;4.43;;;25.40;66.60;;;;;;5062965;28;20532;-72
2023/10/13 03:21:54;;;;;;;4.70;4.30;;;25.40;66.60;;;;;;5066083;28;20488;-72
2023/10/13 03:24:33;;;;;;;4.73;4.30;;;25.40;66.60;;;;;;5037652;28;20452;-72
2023/10/13 03:27:09;;;;;;;4.70;4.20;;;25.40;66.50;;;;;;5050971;28;20473;-72
2023/10/13 03:29:42;;;;;;;4.77;4.27;;;25.40;66.50;;;;;;5053151;28;20445;-72
2023/10/13 03:32:13;;;;;;;5.27;4.47;;;25.40;66.60;;;;;;5048920;28;21094;-72
2023/10/13 03:34:53;;;;;;;4.30;4.00;;;25.40;66.60;;;;;;5052588;28;20467;-72
2023/10/13 03:37:37;;;;;;;4.63;4.17;;;25.40;66.50;;;;;;5065966;28;20465;-72
2023/10/13 03:40:15;;;;;;;4.40;4.00;;;25.40;66.50;;;;;;5033089;28;20434;-72
2023/10/13 03:42:57;;;;;;;4.77;4.37;;;25.40;66.60;;;;;;5046465;28;20503;-72
2023/10/13 03:45:26;;;;;;;4.13;3.70;;;25.40;66.60;;;;;;5048603;28;20463;-72
2023/10/13 03:47:54;;;;;;;4.30;3.90;;;25.40;66.60;;;;;;5051911;28;20434;-72
2023/10/13 03:50:29;;;;;;;4.97;4.57;;;25.40;66.50;;;;;;5049619;28;20456;-72
2023/10/13 03:52:59;;;;;;;3.93;3.60;;;25.40;66.50;;;;;;5052190;28;20906;-72
2023/10/13 03:55:28;;;;;;;4.10;3.80;;;25.40;66.60;;;;;;5053315;28;20481;-72
2023/10/13 03:57:59;;;;;;;4.60;4.20;;;25.40;66.50;;;;;;5072119;28;20439;-72
2023/10/13 04:00:28;;;;;;;4.80;3.70;;;25.40;66.60;;;;;;5066227;28;20460;-72
2023/10/13 04:03:07;;;;;;;4.83;4.43;;;25.30;66.50;;;;;;5047580;28;20483;-72
2023/10/13 04:05:41;;;;;;;3.73;3.40;;;25.30;66.50;;;;;;5048495;28;20457;-72
2023/10/13 04:16:52;;;;;;;4.30;3.90;;;25.30;66.60;;;;;;5045958;28;20523;-72
2023/10/13 04:19:22;;;;;;;4.93;3.93;;;25.30;66.50;;;;;;5046847;28;20547;-71
2023/10/13 04:22:14;;;;;;;4.50;4.10;;;25.30;66.50;;;;;;5052103;28;20455;-71
2023/10/13 04:27:39;;;;;;;4.10;3.80;;;25.30;66.40;;;;;;5047196;28;21019;-72
2023/10/13 04:30:10;;;;;;;4.60;4.20;;;25.30;66.40;;;;;;5049689;28;20495;-72
2023/10/13 04:32:46;;;;;;;5.20;4.43;;;25.30;66.40;;;;;;5047711;28;20558;-72
2023/10/13 04:35:18;;;;;;;4.00;3.70;;;25.30;66.40;;;;;;5050654;28;20483;-71
2023/10/13 04:37:50;;;;;;;4.33;3.93;;;25.30;66.60;;;;;;5042997;28;20460;-72
2023/10/13 04:40:24;;;;;;;4.60;3.83;;;25.30;66.50;;;;;;5051060;28;20558;-72
2023/10/13 04:42:57;;;;;;;7.03;4.03;;;25.30;66.30;;;;;;5048552;28;20458;-72
2023/10/13 04:45:53;;;;;;;4.53;4.07;;;25.30;66.30;;;;;;5052245;28;20514;-72
2023/10/13 04:48:38;;;;;;;4.33;3.93;;;25.30;66.30;;;;;;5051079;28;20456;-72
2023/10/13 04:51:49;;;;;;;4.20;3.40;;;25.20;66.30;;;;;;5033472;28;20462;-72
2023/10/13 04:54:25;;;;;;;5.20;3.97;;;25.20;66.50;;;;;;5048801;28;20463;-72
2023/10/13 05:44:37;;;;;;;6.60;4.73;;;25.20;67.20;;;;;;5044267;28;20513;-71
2023/10/13 05:47:46;;;;;;;4.90;3.93;;;25.10;67.30;;;;;;5041696;28;20484;-72
2023/10/13 05:50:29;;;;;;;4.70;4.10;;;25.10;67.30;;;;;;5047066;28;20453;-71
2023/10/13 06:29:19;;;;;;;4.40;3.73;;;25.10;67.20;;;;;;5049798;28;20456;-72
2023/10/13 06:31:48;;;;;;;4.80;4.00;;;25.10;67.20;;;;;;5049244;28;20505;-72
2023/10/13 06:34:21;;;;;;;4.07;3.67;;;25.10;67.20;;;;;;5052091;28;20941;-71
2023/10/13 06:36:54;;;;;;;4.90;3.93;;;25.10;67.10;;;;;;5053471;28;20570;-72
2023/10/13 06:39:34;;;;;;;3.77;3.30;;;25.10;66.90;;;;;;5049096;28;20455;-71
2023/10/13 06:42:04;;;;;;;4.73;4.03;;;25.20;66.90;;;;;;5047351;28;21061;-71
2023/10/13 06:44:32;;;;;;;4.97;3.90;;;25.10;66.60;;;;;;5059566;28;20459;-72
2023/10/13 06:47:03;;;;;;;4.30;3.90;;;25.10;66.70;;;;;;5049631;28;20504;-71
2023/10/13 06:49:38;;;;;;;4.30;3.90;;;25.10;66.80;;;;;;5051172;28;20468;-71
2023/10/13 06:52:07;;;;;;;4.47;3.60;;;25.10;66.80;;;;;;5051726;28;20558;-71
2023/10/13 06:54:36;;;;;;;5.03;4.47;;;25.10;66.60;;;;;;5047307;28;20958;-72
2023/10/13 06:57:14;;;;;;;4.80;4.20;;;25.10;66.80;;;;;;5050944;28;20493;-72
2023/10/13 06:59:42;;;;;;;4.27;3.87;;;25.10;67.00;;;;;;5044340;28;20462;-71
2023/10/13 07:02:20;;;;;;;3.67;3.37;;;25.10;67.00;;;;;;5045602;28;20925;-71
2023/10/13 07:04:56;;;;;;;3.70;3.40;;;25.10;67.00;;;;;;5040674;28;20465;-71
2023/10/13 07:07:25;;;;;;;4.97;4.57;;;25.20;66.90;;;;;;5051495;28;20440;-71
2023/10/13 07:09:58;;;;;;;4.63;4.23;;;25.20;67.00;;;;;;5051732;28;20455;-71
2023/10/13 07:12:27;;;;;;;4.00;3.70;;;25.20;67.00;;;;;;5049853;28;20481;-71
2023/10/13 07:15:10;;;;;;;4.30;3.90;;;25.20;67.00;;;;;;5052213;28;20462;-71
2023/10/13 07:17:40;;;;;;;4.17;3.87;;;25.20;67.00;;;;;;5041959;28;20441;-71
2023/10/13 07:20:16;;;;;;;5.13;4.70;;;25.20;66.90;;;;;;5049814;28;20553;-72
2023/10/13 07:22:54;;;;;;;6.83;4.50;;;25.20;66.80;;;;;;5043303;28;20470;-70
2023/10/13 07:25:25;;;;;;;4.37;3.90;;;25.20;66.90;;;;;;5054244;28;20465;-70
2023/10/13 07:27:56;;;;;;;4.20;3.80;;;25.20;67.00;;;;;;5053043;28;20557;-71
2023/10/13 07:30:27;;;;;;;4.20;3.80;;;25.20;67.00;;;;;;5056845;28;21039;-70
2023/10/13 07:32:59;;;;;;;4.33;3.70;;;25.20;66.80;;;;;;5054203;28;20451;-70
2023/10/13 07:35:31;;;;;;;4.83;4.43;;;25.20;66.90;;;;;;5058302;28;20573;-70
2023/10/13 07:38:00;;;;;;;5.30;3.90;;;25.20;66.90;;;;;;5058841;28;20986;-70
2023/10/13 07:40:41;;;;;;;3.60;3.30;;;25.20;66.80;;;;;;5053916;28;20476;-70
2023/10/13 07:43:11;;;;;;;4.40;4.00;;;25.20;66.70;;;;;;5054350;28;20448;-70
2023/10/13 07:45:41;;;;;;;4.03;3.70;;;25.20;66.70;;;;;;5052283;28;20457;-70
2023/10/13 07:48:19;;;;;;;6.13;4.50;;;25.20;66.70;;;;;;5053722;28;20497;-71
2023/10/13 07:50:48;;;;;;;3.87;3.57;;;25.20;66.80;;;;;;5077077;28;20808;-71
2023/10/13 07:53:22;;;;;;;4.10;3.70;;;25.30;66.80;;;;;;5033835;28;20993;-67
2023/10/13 07:55:55;;;;;;;4.57;4.17;;;25.20;67.10;;;;;;5038973;28;20479;-66
2023/10/13 07:58:25;;;;;;;4.10;3.70;;;25.20;67.70;;;;;;5040400;28;20554;-67
2023/10/13 08:01:07;;;;;;;6.13;4.20;;;25.20;68.10;;;;;;5045481;28;20475;-67
2023/10/13 08:03:43;;;;;;;5.10;3.83;;;25.30;68.20;;;;;;5043888;28;20466;-67
2023/10/13 08:06:26;;;;;;;3.60;3.30;;;25.30;68.30;;;;;;5036703;28;20459;-67
2023/10/13 08:08:55;;;;;;;4.70;3.90;;;25.30;68.10;;;;;;5055925;28;20711;-67
2023/10/13 08:11:30;;;;;;;4.50;4.10;;;25.30;68.00;;;;;;5043954;28;20470;-66
2023/10/13 08:14:12;;;;;;;3.40;3.20;;;25.30;67.80;;;;;;5038083;28;20596;-67
2023/10/13 08:16:59;;;;;;;4.73;3.80;;;25.40;68.10;;;;;;5045572;28;21103;-66
2023/10/13 08:19:39;;;;;;;3.87;3.57;;;25.40;68.20;;;;;;5040502;28;21051;-67
2023/10/13 08:22:24;;;;;;;6.70;3.60;;;25.40;67.80;;;;;;5044566;28;20465;-66
2023/10/13 08:27:49;;;;;;;4.17;3.77;;;25.40;67.60;;;;;;5040230;28;20576;-66
2023/10/13 08:30:28;;;;;;;5.10;4.10;;;25.40;67.70;;;;;;5049492;28;20466;-66
2023/10/13 08:32:58;;;;;;;3.67;3.37;;;25.50;67.50;;;;;;5044044;28;20457;-67
2023/10/13 08:35:34;;;;;;;3.47;3.17;;;25.50;67.70;;;;;;5041908;28;20969;-66
2023/10/13 08:38:13;;;;;;;3.87;3.20;;;25.50;67.80;;;;;;5038723;28;21172;-67
2023/10/13 08:43:50;;;;;;;3.73;3.43;;;25.50;67.40;;;;;;5037703;28;20494;-67
2023/10/13 08:46:28;;;;;;;5.30;3.67;;;25.50;67.40;;;;;;5039461;28;20473;-66
2023/10/13 08:49:13;;;;;;;3.83;3.50;;;25.60;67.60;;;;;;5040437;28;20489;-67
2023/10/13 08:51:48;;;;;;;5.30;3.20;;;25.60;67.20;;;;;;5038761;28;20956;-66
2023/10/13 08:54:33;;;;;;;3.40;3.10;;;25.60;67.80;;;;;;5038666;28;20468;-67
2023/10/13 09:00:28;;;;;;;3.30;3.00;;;25.70;67.50;;;;;;5062623;27;20566;-66
2023/10/13 09:06:00;;;;;;;3.40;3.17;;;25.70;67.30;;;;;;5060363;28;20469;-67
2023/10/13 09:08:35;;;;;;;4.53;3.10;;;25.70;66.90;;;;;;5063965;28;20460;-66
2023/10/13 09:11:12;;;;;;;3.10;2.80;;;25.70;67.10;;;;;;5059640;28;20451;-67
2023/10/13 09:13:47;;;;;;;3.20;2.87;;;25.70;66.90;;;;;;5053587;28;20979;-66
2023/10/13 09:16:17;;;;;;;2.80;2.60;;;25.70;67.00;;;;;;5053610;28;20567;-66
2023/10/13 09:18:49;;;;;;;5.53;3.67;;;25.70;67.00;;;;;;5058912;28;20488;-66
2023/10/13 09:21:54;;;;;;;4.03;3.50;;;25.70;67.00;;;;;;5054678;28;20975;-67
2023/10/13 09:24:27;;;;;;;3.47;3.17;;;25.70;66.80;;;;;;5054475;28;20608;-67
2023/10/13 09:26:56;;;;;;;3.77;3.40;;;25.70;66.90;;;;;;5059632;28;20499;-68
2023/10/13 09:29:24;;;;;;;2.87;2.67;;;25.70;66.90;;;;;;5053808;28;20456;-66
2023/10/13 09:32:11;;;;;;;3.00;2.70;;;25.80;66.90;;;;;;5054314;28;20461;-68
2023/10/13 09:34:44;;;;;;;3.30;3.10;;;25.80;66.80;;;;;;5056847;28;20838;-67
2023/10/13 09:37:20;;;;;;;3.60;3.30;;;25.80;66.90;;;;;;5053875;28;20465;-67
2023/10/13 09:39:52;;;;;;;3.17;2.97;;;25.80;66.80;;;;;;5052737;28;20476;-67
2023/10/13 09:42:23;;;;;;;3.33;3.13;;;25.80;66.80;;;;;;5056053;28;20492;-67
2023/10/13 09:44:51;;;;;;;4.20;3.80;;;25.80;66.60;;;;;;5051612;28;20560;-67
2023/10/13 09:47:32;;;;;;;2.60;2.40;;;25.90;66.60;;;;;;5057120;28;20949;-66
2023/10/13 09:50:05;;;;;;;2.90;2.63;;;25.90;66.70;;;;;;5055216;28;21039;-66
2023/10/13 09:52:37;;;;;;;3.80;3.20;;;25.90;66.80;;;;;;5054284;28;20480;-68
2023/10/13 09:55:23;;;;;;;3.23;2.93;;;25.90;66.80;;;;;;5071688;28;21122;-67
2023/10/13 09:57:59;;;;;;;3.20;3.00;;;25.90;66.70;;;;;;5056497;28;20499;-66
2023/10/13 10:00:56;;;;;;;3.57;3.27;;;25.90;66.60;;;;;;5052057;28;20450;-67
2023/10/13 10:03:40;;;;;;;2.90;2.70;;;25.90;66.80;;;;;;5060737;28;20472;-67
2023/10/13 10:06:14;;;;;;;3.20;3.00;;;26.00;66.90;;;;;;5054365;28;20735;-68
2023/10/13 10:08:48;;;;;;;3.13;2.83;;;26.00;66.70;;;;;;5055903;28;20453;-66
2023/10/13 10:11:45;;;;;;;4.37;3.53;;;26.00;66.80;;;;;;5043708;28;20890;-67
2023/10/13 10:14:19;;;;;;;3.10;2.90;;;26.10;66.80;;;;;;5021952;28;20569;-67
2023/10/13 10:17:02;;;;;;;2.53;2.33;;;26.10;66.70;;;;;;5047841;28;20548;-67
2023/10/13 10:19:35;;;;;;;4.07;3.40;;;26.10;66.60;;;;;;5043915;28;20500;-67
2023/10/13 10:22:16;;;;;;;3.67;3.37;;;26.20;66.50;;;;;;5038121;28;20496;-66
2023/10/13 10:24:46;;;;;;;2.63;2.43;;;26.30;66.40;;;;;;5038864;28;20578;-67
2023/10/13 10:27:25;;;;;;;3.13;2.87;;;26.40;66.30;;;;;;5043539;28;20886;-67
2023/10/13 10:29:56;;;;;;;3.53;2.90;;;26.40;66.20;;;;;;5042848;28;20456;-67
2023/10/13 10:32:36;;;;;;;2.83;2.63;;;26.50;65.90;;;;;;5040111;28;20461;-67
2023/10/13 10:35:16;;;;;;;2.43;2.23;;;26.60;65.70;;;;;;5042272;28;20497;-70
2023/10/13 10:37:48;;;;;;;3.30;3.07;;;26.80;65.40;;;;;;5039135;28;20466;-70
2023/10/13 10:43:09;;;;;;;3.10;2.60;;;27.10;63.90;;;;;;5038488;28;21082;-71
2023/10/13 10:46:00;;;;;;;3.40;3.00;;;27.20;63.50;;;;;;5041669;28;20467;-71
2023/10/13 10:48:38;;;;;;;3.30;3.10;;;27.50;63.00;;;;;;5038147;28;20465;-75
2023/10/13 10:51:13;;;;;;;2.93;2.73;;;27.60;62.70;;;;;;5037115;28;20842;-74
2023/10/13 10:53:46;;;;;;;5.33;2.90;;;27.70;62.50;;;;;;5040927;28;20611;-74
2023/10/13 10:56:24;;;;;;;3.90;2.80;;;27.70;62.50;;;;;;5042822;28;20461;-74
2023/10/13 10:58:55;;;;;;;3.60;3.30;;;27.70;62.50;;;;;;5037150;28;20709;-75
2023/10/13 11:01:25;;;;;;;2.70;2.50;;;27.70;62.50;;;;;;5036976;28;20467;-75
2023/10/13 11:04:07;;;;;;;2.73;2.53;;;27.80;62.30;;;;;;5037069;28;20462;-74
2023/10/13 11:06:42;;;;;;;3.43;2.80;;;27.90;62.00;;;;;;5033856;28;20515;-75
2023/10/13 11:09:21;;;;;;;2.90;2.70;;;28.00;61.80;;;;;;5041619;28;20457;-74
2023/10/13 11:11:52;;;;;;;2.70;2.50;;;28.00;61.70;;;;;;5032809;28;20584;-73
2023/10/13 11:14:23;;;;;;;2.70;2.50;;;27.90;61.80;;;;;;5038324;28;20462;-73
2023/10/13 11:16:54;;;;;;;2.77;2.57;;;27.90;62.10;;;;;;5030210;28;20474;-74
2023/10/13 11:19:34;;;;;;;3.77;3.13;;;27.90;62.20;;;;;;5040410;28;20505;-74
2023/10/13 11:22:29;;;;;;;2.30;2.20;;;27.90;62.20;;;;;;5042300;28;20967;-75
2023/10/13 11:24:59;;;;;;;2.73;2.53;;;27.90;62.20;;;;;;5041944;28;20831;-74
2023/10/13 11:27:56;;;;;;;3.07;2.77;;;27.90;62.10;;;;;;5045523;28;20462;-75
2023/10/13 11:30:40;;;;;;;2.77;2.47;;;28.00;62.10;;;;;;5036317;28;20944;-74
2023/10/13 11:33:11;;;;;;;3.50;3.30;;;28.00;62.00;;;;;;5040767;28;20462;-73
2023/10/13 11:35:55;;;;;;;2.83;2.63;;;28.00;62.00;;;;;;5040495;28;20461;-74
2023/10/13 11:38:27;;;;;;;4.13;2.83;;;28.00;62.10;;;;;;5037580;28;20457;-74
2023/10/13 11:41:12;;;;;;;3.23;2.80;;;28.00;62.10;;;;;;5040030;28;20480;-74
2023/10/13 11:49:18;;;;;;;3.07;2.67;;;28.20;61.80;;;;;;5032389;28;20593;-74
2023/10/13 11:51:48;;;;;;;3.40;3.20;;;28.30;61.60;;;;;;5038566;28;20469;-74
2023/10/13 11:54:18;;;;;;;3.50;3.00;;;28.30;61.50;;;;;;5051762;28;20453;-74
2023/10/13 11:56:48;;;;;;;2.57;2.37;;;28.40;61.30;;;;;;5043906;28;20465;-76
2023/10/13 11:59:17;;;;;;;2.77;2.57;;;28.50;61.30;;;;;;5039412;28;20509;-74
2023/10/13 12:04:34;;;;;;;2.80;2.60;;;28.50;61.10;;;;;;5012443;28;20474;-76
2023/10/13 12:07:17;;;;;;;3.30;3.00;;;28.50;61.10;;;;;;5030993;28;20842;-70
2023/10/13 12:10:06;;;;;;;2.57;2.37;;;28.50;61.00;;;;;;5036447;28;20467;-71
2023/10/13 12:12:40;;;;;;;2.23;2.03;;;28.50;61.10;;;;;;5044677;28;20465;-69
2023/10/13 12:15:25;;;;;;;4.60;2.93;;;28.40;61.40;;;;;;5040183;28;20470;-69
2023/10/13 12:17:57;;;;;;;2.97;2.07;;;28.40;61.40;;;;;;5040457;28;21426;-69
2023/10/13 12:20:33;;;;;;;3.50;3.13;;;28.50;61.50;;;;;;5040089;28;20474;-68
2023/10/13 12:23:15;;;;;;;2.73;2.43;;;28.50;61.50;;;;;;5036349;28;20556;-68
2023/10/13 12:25:54;;;;;;;3.50;2.73;;;28.50;61.60;;;;;;5035317;28;20545;-71
2023/10/13 12:28:23;;;;;;;5.90;2.70;;;28.50;61.70;;;;;;5034523;28;21373;-69
2023/10/13 12:30:52;;;;;;;3.07;2.60;;;28.50;61.70;;;;;;5029982;28;20478;-71
2023/10/13 12:33:36;;;;;;;2.43;2.23;;;28.50;61.70;;;;;;5035156;28;20468;-69
2023/10/13 12:36:14;;;;;;;2.90;2.60;;;28.60;61.80;;;;;;5029069;28;20626;-69
2023/10/13 12:50:07;;;;;;;3.00;2.70;;;28.80;61.40;;;;;;5039396;28;20950;-69
2023/10/13 12:52:36;;;;;;;4.03;3.70;;;28.90;61.30;;;;;;5052233;28;20463;-70
2023/10/13 12:55:09;;;;;;;2.90;2.40;;;28.90;61.30;;;;;;5034183;28;20469;-70
2023/10/13 12:57:44;;;;;;;5.60;3.00;;;29.00;61.20;;;;;;5033124;28;21081;-70
2023/10/13 13:00:25;;;;;;;2.53;2.33;;;29.00;61.20;;;;;;5041512;28;20479;-70
2023/10/13 13:02:55;;;;;;;2.37;2.20;;;29.00;61.20;;;;;;5043475;28;20466;-70
2023/10/13 13:05:31;;;;;;;3.70;2.50;;;29.00;61.20;;;;;;5032755;28;20465;-69
2023/10/13 13:08:00;;;;;;;3.40;2.10;;;29.00;61.10;;;;;;5034597;28;20468;-70
2023/10/13 13:10:39;;;;;;;3.00;2.80;;;29.10;61.10;;;;;;5041094;28;20504;-69
2023/10/13 13:13:09;;;;;;;2.50;1.80;;;29.10;61.20;;;;;;5037778;28;20467;-69
2023/10/13 13:15:39;;;;;;;3.90;2.33;;;29.10;61.20;;;;;;5062820;28;20477;-70
2023/10/13 13:18:11;;;;;;;3.40;2.57;;;29.10;61.30;;;;;;5046679;28;20449;-68
2023/10/13 13:20:52;;;;;;;2.70;2.50;;;29.10;61.30;;;;;;5043841;28;20470;-69
2023/10/13 13:23:25;;;;;;;2.40;2.20;;;29.10;61.50;;;;;;5042228;28;20485;-69
2023/10/13 13:25:57;;;;;;;2.73;2.53;;;29.00;61.60;;;;;;5040728;28;20466;-70
2023/10/13 13:28:29;;;;;;;2.90;2.70;;;29.00;61.90;;;;;;5037831;28;20455;-68
2023/10/13 13:31:07;;;;;;;2.50;2.30;;;28.90;62.10;;;;;;5035356;28;20520;-70
2023/10/13 13:33:38;;;;;;;2.30;2.17;;;28.90;62.30;;;;;;5041174;28;20465;-68
2023/10/13 13:36:13;;;;;;;3.23;2.93;;;28.90;62.40;;;;;;5035537;28;20460;-69
2023/10/13 13:38:48;;;;;;;2.57;2.37;;;28.80;62.60;;;;;;5047277;28;20580;-69
2023/10/13 13:41:18;;;;;;;2.60;2.40;;;28.80;62.80;;;;;;5036363;28;20502;-69
2023/10/13 13:43:56;;;;;;;2.97;2.40;;;28.70;63.10;;;;;;5030260;28;20469;-68
2023/10/13 13:46:27;;;;;;;2.67;2.47;;;28.70;63.10;;;;;;5036894;28;20464;-71
2023/10/13 13:48:59;;;;;;;2.37;2.13;;;28.70;63.10;;;;;;5035419;28;20462;-70
2023/10/13 13:51:28;;;;;;;2.80;2.60;;;28.70;63.20;;;;;;5038399;28;20613;-69
2023/10/13 13:53:57;;;;;;;2.93;2.40;;;28.70;63.20;;;;;;5032972;28;20516;-70
2023/10/13 13:56:28;;;;;;;3.50;2.60;;;28.70;63.20;;;;;;5055885;28;20461;-69
2023/10/13 13:59:06;;;;;;;2.40;2.23;;;28.70;63.20;;;;;;5041485;28;20502;-69
2023/10/13 14:01:37;;;;;;;2.67;2.47;;;28.70;63.20;;;;;;5041932;28;20891;-69
2023/10/13 14:04:07;;;;;;;3.33;3.13;;;28.70;63.20;;;;;;5035345;28;20547;-70
2023/10/13 14:06:37;;;;;;;3.40;2.57;;;28.70;63.30;;;;;;5036479;28;20470;-70
2023/10/13 14:09:14;;;;;;;2.30;2.10;;;28.70;63.20;;;;;;5039279;28;21486;-71
2023/10/13 14:14:33;;;;;;;2.37;2.17;;;28.70;63.40;;;;;;5041868;28;20469;-69
2023/10/13 14:17:07;;;;;;;2.77;2.57;;;28.70;63.50;;;;;;5037783;28;20549;-70
2023/10/13 14:19:40;;;;;;;3.33;2.17;;;28.70;63.60;;;;;;5044623;28;20541;-70
2023/10/13 14:22:12;;;;;;;1.67;1.57;;;28.70;63.70;;;;;;5048531;28;20964;-70
2023/10/13 14:24:51;;;;;;;2.50;2.30;;;28.70;63.70;;;;;;5048607;28;20985;-70
2023/10/13 14:27:22;;;;;;;1.93;1.83;;;28.70;63.80;;;;;;5042709;28;20501;-70
2023/10/13 14:29:53;;;;;;;2.77;1.83;;;28.70;63.90;;;;;;5042655;28;20474;-69
2023/10/13 14:32:27;;;;;;;3.63;2.10;;;28.70;64.00;;;;;;5037819;28;20470;-69
2023/10/13 14:34:56;;;;;;;2.50;2.30;;;28.70;64.00;;;;;;5037260;28;20488;-71
2023/10/13 14:37:29;;;;;;;2.20;2.00;;;28.70;64.10;;;;;;5037526;28;20457;-71
2023/10/13 14:39:59;;;;;;;3.30;2.40;;;28.70;64.10;;;;;;5042920;28;20462;-69
2023/10/13 14:42:29;;;;;;;2.50;1.90;;;28.70;64.20;;;;;;5039442;28;20462;-69
2023/10/13 14:45:00;;;;;;;2.53;2.33;;;28.70;64.30;;;;;;5041962;28;20458;-69
2023/10/13 14:47:28;;;;;;;2.23;2.03;;;28.70;64.30;;;;;;5040315;28;20648;-70
2023/10/13 14:49:59;;;;;;;1.93;1.83;;;28.70;64.30;;;;;;5041155;28;20462;-70
2023/10/13 14:52:31;;;;;;;2.90;1.80;;;28.70;64.40;;;;;;5044476;28;20481;-69
2023/10/13 14:55:00;;;;;;;2.13;1.90;;;28.70;64.40;;;;;;5037753;28;20462;-69
2023/10/13 14:57:29;;;;;;;6.20;2.03;;;28.70;64.40;;;;;;5037501;28;20473;-70
2023/10/13 14:59:58;;;;;;;2.40;2.20;;;28.70;64.50;;;;;;5041581;28;20483;-69
2023/10/13 15:02:27;;;;;;;2.87;1.90;;;28.80;64.60;;;;;;5038943;28;21026;-71
2023/10/13 15:04:57;;;;;;;2.23;1.77;;;28.80;64.70;;;;;;5044012;28;20496;-71
2023/10/13 15:07:27;;;;;;;2.30;2.10;;;28.80;64.60;;;;;;5041141;28;20485;-70
2023/10/13 15:09:57;;;;;;;3.27;2.00;;;28.80;64.70;;;;;;5040212;28;20457;-70
2023/10/13 15:12:25;;;;;;;3.77;2.17;;;28.80;64.70;;;;;;5040152;28;20458;-70
2023/10/13 15:14:58;;;;;;;2.23;2.00;;;28.80;64.70;;;;;;5041145;28;20470;-70
2023/10/13 15:17:29;;;;;;;4.77;1.63;;;28.80;64.70;;;;;;5043640;28;20972;-69
2023/10/13 15:19:59;;;;;;;3.10;2.17;;;28.80;64.70;;;;;;5044325;28;20494;-70
2023/10/13 15:22:27;;;;;;;1.90;1.80;;;28.80;64.80;;;;;;5043738;28;20480;-69
2023/10/13 15:25:08;;;;;;;2.10;2.00;;;28.80;65.10;;;;;;5047289;28;20455;-69
2023/10/13 15:27:41;;;;;;;1.60;1.50;;;28.70;65.20;;;;;;5046969;28;20985;-71
2023/10/13 15:30:22;;;;;;;2.30;1.80;;;28.70;65.40;;;;;;5036954;28;20519;-72
2023/10/13 15:32:51;;;;;;;2.33;2.10;;;28.60;65.60;;;;;;5034594;28;20464;-72
2023/10/13 15:35:22;;;;;;;3.20;2.03;;;28.50;64.90;;;;;;5037810;28;20458;-72
2023/10/13 15:37:51;;;;;;;2.30;2.17;;;28.40;64.20;;;;;;5039759;28;20463;-72